Time;durP1;ratioP1;P1;durP2;ratioP2;P2;SDS_P1;SDS_P2;PMS_P1;PMS_P2;Temp;Humidity;BMP_temperature;BMP_pressure;BME280_temperature;BME280_humidity;BME280_pressure;Samples;Min_cycle;Max_cycle;Signal;HPM_P1;HPM_P2
2021/05/13 00:01:22;;;;;;;0.40;0.20;;;9.60;99.90;;;;;;5071165;28;20391;-71
2021/05/13 00:03:54;;;;;;;0.40;0.20;;;10.20;99.90;;;;;;5069804;28;20391;-72
2021/05/13 00:06:20;;;;;;;0.40;0.20;;;9.10;99.90;;;;;;5070818;28;20398;-71
2021/05/13 00:08:55;;;;;;;0.40;0.20;;;9.00;99.90;;;;;;5070093;28;20384;-71
2021/05/13 00:11:28;;;;;;;0.40;0.20;;;9.00;99.90;;;;;;5070870;28;20463;-71
2021/05/13 00:13:54;;;;;;;0.40;0.20;;;9.00;99.90;;;;;;5070374;28;20454;-71
2021/05/13 00:16:21;;;;;;;0.40;0.20;;;8.90;99.90;;;;;;5070769;28;20853;-71
2021/05/13 00:18:47;;;;;;;0.40;0.30;;;8.90;99.90;;;;;;5070218;28;20761;-71
2021/05/13 00:21:13;;;;;;;0.40;0.30;;;9.20;99.90;;;;;;5071013;28;20474;-71
2021/05/13 00:23:39;;;;;;;0.40;0.20;;;9.00;99.90;;;;;;5070377;28;20790;-71
2021/05/13 00:26:04;;;;;;;0.40;0.30;;;9.00;99.90;;;;;;5069913;28;20664;-71
2021/05/13 00:28:30;;;;;;;0.40;0.20;;;8.90;99.90;;;;;;5070631;28;20394;-74
2021/05/13 00:30:55;;;;;;;0.40;0.20;;;9.40;99.90;;;;;;5069838;28;20384;-72
2021/05/13 00:33:21;;;;;;;0.47;0.47;;;9.40;99.90;;;;;;5070221;28;20470;-71
2021/05/13 00:35:47;;;;;;;0.40;0.20;;;8.70;99.90;;;;;;5069249;28;20404;-72
2021/05/13 00:38:12;;;;;;;0.40;0.20;;;9.00;99.90;;;;;;5070475;28;20399;-71
2021/05/13 00:40:38;;;;;;;0.40;0.20;;;8.90;99.90;;;;;;5070335;28;20379;-71
2021/05/13 00:43:04;;;;;;;0.40;0.20;;;8.90;99.90;;;;;;5069842;28;20838;-71
2021/05/13 00:45:30;;;;;;;0.40;0.30;;;9.40;99.90;;;;;;5070323;28;20520;-71
2021/05/13 00:50:22;;;;;;;0.40;0.20;;;9.80;99.90;;;;;;5070296;28;20384;-72
2021/05/13 00:52:49;;;;;;;0.40;0.20;;;9.00;99.90;;;;;;5069683;28;20471;-72
2021/05/13 00:55:16;;;;;;;0.40;0.20;;;8.90;99.90;;;;;;5070258;28;20388;-71
2021/05/13 00:57:45;;;;;;;0.70;0.70;;;8.90;99.90;;;;;;5068559;28;20909;-71
2021/05/13 01:02:57;;;;;;;0.40;0.30;;;8.80;99.90;;;;;;5069737;28;20402;-71
2021/05/13 01:05:23;;;;;;;0.40;0.40;;;8.90;99.90;;;;;;5070260;28;20799;-71
2021/05/13 01:07:49;;;;;;;0.40;0.20;;;8.70;99.90;;;;;;5069367;28;20773;-72
2021/05/13 01:10:15;;;;;;;0.40;0.20;;;8.90;99.90;;;;;;5070249;28;20379;-71
2021/05/13 01:12:42;;;;;;;0.40;0.40;;;8.90;99.90;;;;;;5070105;28;20384;-71
2021/05/13 01:15:19;;;;;;;0.40;0.20;;;9.00;99.90;;;;;;5069642;28;20732;-71
2021/05/13 01:17:55;;;;;;;0.40;0.20;;;8.90;99.90;;;;;;5073997;28;20435;-71
2021/05/13 01:20:21;;;;;;;0.40;0.30;;;8.70;99.90;;;;;;5074065;28;20733;-71
2021/05/13 01:22:47;;;;;;;0.40;0.20;;;9.00;99.90;;;;;;5073922;28;20486;-71
2021/05/13 01:25:13;;;;;;;0.40;0.20;;;8.80;99.90;;;;;;5073255;28;20372;-71
2021/05/13 01:27:38;;;;;;;0.40;0.30;;;8.90;99.90;;;;;;5073907;28;20472;-71
2021/05/13 01:30:05;;;;;;;0.40;0.20;;;9.20;99.90;;;;;;5073573;28;20499;-71
2021/05/13 01:32:31;;;;;;;0.40;0.20;;;8.90;99.90;;;;;;5073686;28;20483;-72
2021/05/13 01:35:00;;;;;;;0.40;0.20;;;8.80;99.90;;;;;;5073238;28;20376;-72
2021/05/13 01:37:26;;;;;;;0.40;0.20;;;8.90;99.90;;;;;;5073795;28;20448;-72
2021/05/13 01:39:51;;;;;;;0.40;0.20;;;8.80;99.90;;;;;;5073029;28;20383;-74
2021/05/13 01:42:17;;;;;;;0.40;0.20;;;8.80;99.90;;;;;;5073670;28;20387;-73
2021/05/13 01:44:43;;;;;;;0.40;0.30;;;8.80;99.90;;;;;;5073560;28;20376;-73
2021/05/13 01:47:09;;;;;;;0.40;0.20;;;8.90;99.90;;;;;;5072729;28;20388;-73
2021/05/13 01:49:35;;;;;;;0.40;0.20;;;8.80;99.90;;;;;;5073248;28;20372;-72
2021/05/13 01:52:01;;;;;;;0.40;0.20;;;9.00;99.90;;;;;;5072760;28;20387;-74
2021/05/13 01:54:28;;;;;;;0.40;0.20;;;8.70;99.90;;;;;;5073393;28;20383;-73
2021/05/13 01:57:03;;;;;;;0.40;0.20;;;8.80;99.90;;;;;;5072787;28;20423;-71
2021/05/13 01:59:30;;;;;;;0.40;0.20;;;8.80;99.90;;;;;;5072223;28;20850;-73
2021/05/13 02:01:58;;;;;;;0.40;0.20;;;9.00;99.90;;;;;;5072449;28;20756;-73
2021/05/13 02:04:23;;;;;;;0.40;0.20;;;9.30;99.90;;;;;;5073288;28;20470;-73
2021/05/13 02:06:49;;;;;;;0.40;0.20;;;8.60;99.90;;;;;;5071757;28;20494;-73
2021/05/13 02:09:15;;;;;;;0.40;0.20;;;8.70;99.90;;;;;;5072544;28;20387;-71
2021/05/13 02:11:40;;;;;;;0.40;0.20;;;8.70;99.90;;;;;;5073089;28;20470;-73
2021/05/13 02:14:06;;;;;;;0.40;0.20;;;8.80;99.90;;;;;;5072467;28;20372;-73
2021/05/13 02:16:32;;;;;;;0.40;0.20;;;8.90;99.90;;;;;;5072995;28;20850;-73
2021/05/13 02:18:57;;;;;;;0.40;0.20;;;8.90;99.90;;;;;;5072391;28;20451;-74
2021/05/13 02:21:23;;;;;;;0.40;0.20;;;9.50;99.90;;;;;;5072639;28;20441;-73
2021/05/13 02:23:49;;;;;;;0.40;0.20;;;8.90;99.90;;;;;;5072587;28;20379;-71
2021/05/13 02:26:16;;;;;;;0.40;0.20;;;8.80;99.90;;;;;;5072220;28;20380;-71
2021/05/13 02:28:41;;;;;;;0.40;0.30;;;8.90;99.90;;;;;;5071585;28;20464;-71
2021/05/13 02:31:07;;;;;;;0.40;0.20;;;9.20;99.90;;;;;;5071908;28;20471;-71
2021/05/13 02:33:32;;;;;;;0.40;0.20;;;9.70;99.90;;;;;;5072916;28;20720;-71
2021/05/13 02:35:58;;;;;;;0.40;0.20;;;8.80;99.90;;;;;;5072629;28;20407;-71
2021/05/13 02:38:24;;;;;;;0.40;0.20;;;8.90;99.90;;;;;;5072453;28;20450;-71
2021/05/13 02:40:49;;;;;;;0.40;0.20;;;8.80;99.90;;;;;;5072595;28;20486;-71
2021/05/13 02:43:15;;;;;;;0.40;0.30;;;9.00;99.90;;;;;;5071881;28;20376;-71
2021/05/13 02:45:41;;;;;;;0.40;0.20;;;8.80;99.90;;;;;;5072380;28;20387;-71
2021/05/13 02:48:06;;;;;;;0.40;0.20;;;9.20;99.90;;;;;;5071909;28;20380;-71
2021/05/13 02:50:32;;;;;;;0.40;0.20;;;8.90;99.90;;;;;;5072121;28;20471;-71
2021/05/13 02:52:58;;;;;;;0.40;0.20;;;9.30;99.90;;;;;;5070459;28;20388;-71
2021/05/13 02:55:24;;;;;;;0.40;0.20;;;8.90;99.90;;;;;;5072329;28;20469;-71
2021/05/13 02:57:50;;;;;;;0.40;0.20;;;9.00;99.90;;;;;;5072185;28;20525;-70
2021/05/13 03:02:45;;;;;;;0.40;0.30;;;8.70;99.90;;;;;;5072174;28;20392;-73
2021/05/13 03:05:15;;;;;;;0.40;0.20;;;8.80;99.90;;;;;;5071361;28;20892;-73
2021/05/13 03:07:45;;;;;;;0.40;0.20;;;8.70;99.90;;;;;;5072036;28;20805;-71
2021/05/13 03:10:53;;;;;;;0.80;0.60;;;8.80;99.90;;;;;;5071532;28;20458;-71
2021/05/13 03:13:01;;;;;;;0.40;0.20;;;8.80;99.90;;;;;;5065460;28;20398;-71
2021/05/13 03:15:28;;;;;;;0.40;0.20;;;8.70;99.90;;;;;;5071809;28;20380;-71
2021/05/13 03:17:54;;;;;;;0.40;0.20;;;8.50;99.90;;;;;;5071779;28;20403;-71
2021/05/13 03:20:24;;;;;;;0.40;0.20;;;8.80;99.90;;;;;;5071249;28;20475;-71
2021/05/13 03:22:54;;;;;;;0.40;0.20;;;8.60;99.90;;;;;;5070035;28;20388;-71
2021/05/13 03:25:26;;;;;;;0.50;0.40;;;9.30;99.90;;;;;;5071049;28;20387;-71
2021/05/13 03:27:55;;;;;;;0.40;0.20;;;8.70;99.90;;;;;;5071787;28;20825;-71
2021/05/13 03:30:24;;;;;;;0.40;0.30;;;9.60;99.90;;;;;;5069950;28;20811;-71
2021/05/13 03:32:51;;;;;;;0.40;0.20;;;8.70;99.90;;;;;;5071101;28;20402;-71
2021/05/13 03:35:17;;;;;;;0.40;0.20;;;8.70;99.90;;;;;;5070598;28;20414;-71
2021/05/13 03:37:42;;;;;;;0.40;0.20;;;8.80;99.90;;;;;;5071397;28;20395;-71
2021/05/13 03:40:09;;;;;;;1.10;0.50;;;8.80;99.90;;;;;;5070713;28;20455;-71
2021/05/13 03:42:35;;;;;;;0.40;0.20;;;8.80;99.90;;;;;;5071285;28;20832;-71
2021/05/13 03:45:00;;;;;;;0.43;0.32;;;9.80;99.90;;;;;;5070605;28;20390;-71
2021/05/13 03:47:26;;;;;;;0.60;0.50;;;8.80;99.90;;;;;;5071271;28;20387;-71
2021/05/13 03:49:51;;;;;;;0.40;0.20;;;9.10;99.90;;;;;;5070882;28;20391;-71
2021/05/13 03:52:18;;;;;;;0.40;0.20;;;9.40;99.90;;;;;;5070611;28;20884;-71
2021/05/13 03:54:43;;;;;;;0.40;0.20;;;8.70;99.90;;;;;;5071092;28;20383;-71
2021/05/13 03:57:09;;;;;;;0.40;0.20;;;9.00;99.90;;;;;;5070568;28;20505;-71
2021/05/13 03:59:38;;;;;;;0.40;0.20;;;8.60;99.90;;;;;;5070968;28;20384;-71
2021/05/13 04:04:48;;;;;;;0.40;0.20;;;8.80;99.90;;;;;;5071272;28;20375;-71
2021/05/13 04:07:14;;;;;;;0.40;0.20;;;8.80;99.90;;;;;;5070913;28;20388;-71
2021/05/13 04:09:39;;;;;;;0.40;0.20;;;8.90;99.90;;;;;;5071687;28;20376;-71
2021/05/13 04:12:05;;;;;;;0.40;0.20;;;8.80;99.90;;;;;;5069617;28;20386;-71
2021/05/13 04:14:31;;;;;;;0.40;0.20;;;8.90;99.90;;;;;;5071422;28;20461;-71
2021/05/13 04:16:58;;;;;;;0.40;0.20;;;8.90;99.90;;;;;;5071175;28;20923;-71
2021/05/13 04:19:24;;;;;;;0.40;0.20;;;9.10;99.90;;;;;;5071088;28;20399;-71
2021/05/13 04:21:50;;;;;;;0.40;0.20;;;8.90;99.90;;;;;;5071464;28;20798;-71
2021/05/13 04:24:18;;;;;;;0.40;0.20;;;8.90;99.90;;;;;;5070364;28;20382;-71
2021/05/13 04:26:44;;;;;;;0.40;0.20;;;8.90;99.90;;;;;;5071481;28;20391;-70
2021/05/13 04:29:10;;;;;;;0.40;0.20;;;8.70;99.90;;;;;;5070626;28;20383;-71
2021/05/13 04:31:36;;;;;;;0.40;0.20;;;9.10;99.90;;;;;;5070042;28;20850;-71
2021/05/13 04:34:03;;;;;;;0.40;0.20;;;9.20;99.90;;;;;;5070504;28;20403;-71
2021/05/13 04:36:29;;;;;;;0.40;0.20;;;9.40;99.90;;;;;;5071142;28;20400;-71
2021/05/13 04:38:55;;;;;;;0.40;0.20;;;9.40;99.90;;;;;;5070960;28;20745;-71
2021/05/13 04:41:21;;;;;;;0.60;0.60;;;9.40;99.90;;;;;;5070266;28;20433;-71
2021/05/13 04:43:46;;;;;;;0.40;0.30;;;9.40;99.90;;;;;;5070967;28;20441;-71
2021/05/13 04:46:12;;;;;;;0.40;0.20;;;9.30;99.90;;;;;;5070426;28;20467;-71
2021/05/13 04:51:20;;;;;;;0.40;0.20;;;9.30;99.90;;;;;;5069920;28;20876;-72
2021/05/13 04:53:49;;;;;;;0.40;0.20;;;9.20;99.90;;;;;;5070920;28;20431;-71
2021/05/13 04:56:15;;;;;;;0.40;0.20;;;9.30;99.90;;;;;;5070309;28;20785;-71
2021/05/13 04:58:42;;;;;;;0.50;0.50;;;9.40;99.90;;;;;;5070862;28;20491;-71
2021/05/13 05:01:08;;;;;;;0.70;0.60;;;9.40;99.90;;;;;;5070324;28;20502;-71
2021/05/13 05:03:33;;;;;;;0.40;0.20;;;9.70;99.90;;;;;;5071188;28;20897;-71
2021/05/13 05:05:59;;;;;;;0.40;0.20;;;9.30;99.90;;;;;;5069609;28;20426;-71
2021/05/13 05:08:25;;;;;;;0.40;0.20;;;9.70;99.90;;;;;;5070145;28;20723;-73
2021/05/13 05:10:50;;;;;;;0.40;0.20;;;9.50;99.90;;;;;;5070681;28;20711;-72
2021/05/13 05:13:16;;;;;;;0.40;0.20;;;9.40;99.90;;;;;;5069943;28;20459;-72
2021/05/13 05:15:42;;;;;;;0.40;0.20;;;9.50;99.90;;;;;;5070810;28;20473;-72
2021/05/13 05:18:07;;;;;;;0.40;0.20;;;9.50;99.90;;;;;;5070039;28;20410;-73
2021/05/13 05:20:33;;;;;;;0.40;0.20;;;9.50;99.90;;;;;;5070665;28;20492;-72
2021/05/13 05:22:59;;;;;;;0.40;0.20;;;9.60;99.90;;;;;;5070682;28;20416;-73
2021/05/13 05:25:24;;;;;;;0.40;0.20;;;9.60;99.90;;;;;;5069988;28;20383;-73
2021/05/13 05:27:50;;;;;;;0.40;0.20;;;9.80;99.90;;;;;;5070917;28;20398;-73
2021/05/13 05:30:16;;;;;;;0.40;0.30;;;9.80;99.90;;;;;;5069964;28;20434;-72
2021/05/13 05:32:42;;;;;;;0.40;0.20;;;9.80;99.90;;;;;;5070682;28;20386;-73
2021/05/13 05:35:08;;;;;;;0.70;0.70;;;9.80;99.90;;;;;;5069700;28;20478;-73
2021/05/13 05:37:34;;;;;;;0.40;0.20;;;9.90;99.90;;;;;;5070528;28;20450;-73
2021/05/13 05:40:02;;;;;;;0.40;0.20;;;10.10;99.90;;;;;;5070618;28;20450;-72
2021/05/13 05:42:28;;;;;;;0.40;0.20;;;10.00;99.90;;;;;;5069983;28;20383;-72
2021/05/13 05:44:54;;;;;;;0.40;0.20;;;10.10;99.90;;;;;;5070516;28;20395;-72
2021/05/13 05:47:20;;;;;;;0.40;0.30;;;10.10;99.90;;;;;;5069677;28;20742;-73
2021/05/13 05:49:45;;;;;;;0.40;0.30;;;10.20;99.90;;;;;;5070277;28;20372;-72
2021/05/13 05:52:12;;;;;;;0.40;0.30;;;10.30;99.90;;;;;;5069929;28;20471;-73
2021/05/13 05:54:38;;;;;;;0.40;0.30;;;10.60;99.90;;;;;;5070263;28;20471;-73
2021/05/13 05:57:04;;;;;;;0.40;0.20;;;10.60;99.90;;;;;;5070171;28;20502;-72
2021/05/13 05:59:30;;;;;;;0.40;0.20;;;10.60;99.90;;;;;;5070256;28;20394;-73
2021/05/13 06:01:55;;;;;;;0.40;0.20;;;10.60;99.90;;;;;;5070258;28;20384;-73
2021/05/13 06:04:21;;;;;;;0.40;0.20;;;10.70;99.90;;;;;;5073163;28;20379;-73
2021/05/13 06:06:46;;;;;;;0.40;0.20;;;11.40;99.90;;;;;;5073956;28;20382;-72
2021/05/13 06:09:12;;;;;;;0.40;0.20;;;10.80;99.90;;;;;;5073109;28;20379;-72
2021/05/13 06:11:38;;;;;;;0.40;0.20;;;11.00;99.90;;;;;;5072483;28;20419;-72
2021/05/13 06:14:04;;;;;;;0.40;0.20;;;11.10;99.90;;;;;;5073716;28;20384;-72
2021/05/13 06:16:30;;;;;;;0.40;0.20;;;11.20;99.90;;;;;;5073156;28;20380;-72
2021/05/13 06:18:57;;;;;;;0.40;0.30;;;11.30;99.90;;;;;;5073606;28;20403;-72
2021/05/13 06:21:24;;;;;;;0.40;0.20;;;11.10;99.90;;;;;;5072907;28;20372;-72
2021/05/13 06:23:57;;;;;;;0.40;0.20;;;11.30;99.90;;;;;;5073518;28;20380;-72
2021/05/13 06:26:26;;;;;;;0.40;0.20;;;11.50;99.90;;;;;;5072684;28;20466;-72
2021/05/13 06:28:52;;;;;;;0.40;0.20;;;11.70;99.90;;;;;;5073507;28;20395;-72
2021/05/13 06:31:18;;;;;;;0.40;0.30;;;11.80;99.90;;;;;;5072829;28;20372;-72
2021/05/13 06:33:44;;;;;;;0.40;0.20;;;11.70;99.90;;;;;;5070666;28;20478;-72
2021/05/13 06:36:09;;;;;;;0.40;0.30;;;12.10;99.90;;;;;;5072393;28;20766;-73
2021/05/13 06:38:35;;;;;;;0.40;0.30;;;12.40;99.90;;;;;;5072982;28;20449;-73
2021/05/13 06:41:01;;;;;;;0.40;0.30;;;12.50;99.90;;;;;;5069562;28;20403;-73
2021/05/13 06:43:27;;;;;;;0.40;0.20;;;12.70;99.90;;;;;;5070098;28;20465;-73
2021/05/13 06:45:53;;;;;;;0.40;0.20;;;12.60;99.90;;;;;;5072034;28;20380;-73
2021/05/13 06:48:18;;;;;;;0.40;0.23;;;12.60;99.90;;;;;;5069781;28;20402;-75
2021/05/13 06:50:44;;;;;;;0.40;0.30;;;12.60;99.90;;;;;;5072860;28;20437;-73
2021/05/13 06:53:10;;;;;;;0.70;0.70;;;12.80;99.90;;;;;;5071873;28;20391;-74
2021/05/13 06:55:41;;;;;;;0.50;0.40;;;13.00;99.90;;;;;;5071996;28;20419;-73
2021/05/13 06:58:06;;;;;;;0.40;0.20;;;12.70;99.90;;;;;;5071728;28;20412;-74
2021/05/13 07:00:32;;;;;;;0.40;0.20;;;12.80;99.90;;;;;;5071154;28;20402;-71
2021/05/13 07:02:58;;;;;;;0.40;0.30;;;12.90;99.90;;;;;;5072350;28;20372;-72
2021/05/13 07:05:24;;;;;;;0.40;0.30;;;12.90;99.90;;;;;;5069690;28;20433;-73
2021/05/13 07:07:49;;;;;;;0.40;0.40;;;12.90;99.90;;;;;;5072518;28;20474;-73
2021/05/13 07:10:15;;;;;;;0.40;0.20;;;13.00;99.90;;;;;;5071720;28;20376;-72
2021/05/13 07:12:41;;;;;;;0.40;0.20;;;13.20;99.90;;;;;;5052456;28;20456;-73
2021/05/13 07:15:08;;;;;;;0.40;0.40;;;13.10;99.90;;;;;;5070358;28;20807;-72
2021/05/13 07:17:33;;;;;;;0.40;0.20;;;13.10;99.90;;;;;;5070859;28;20413;-71
2021/05/13 07:19:59;;;;;;;0.40;0.30;;;13.10;99.90;;;;;;5072013;28;21102;-72
2021/05/13 07:22:24;;;;;;;0.40;0.20;;;13.20;99.90;;;;;;5070924;28;20802;-72
2021/05/13 07:24:50;;;;;;;0.40;0.20;;;13.20;99.90;;;;;;5072018;28;20383;-72
2021/05/13 07:27:16;;;;;;;0.40;0.20;;;13.30;99.90;;;;;;5071231;28;20387;-72
2021/05/13 07:29:42;;;;;;;0.50;0.40;;;13.20;99.90;;;;;;5067990;28;20395;-72
2021/05/13 07:32:07;;;;;;;0.40;0.20;;;13.40;99.90;;;;;;5066689;28;20401;-73
2021/05/13 07:34:34;;;;;;;0.40;0.20;;;13.40;99.90;;;;;;5070196;28;20730;-74
2021/05/13 07:36:59;;;;;;;0.40;0.20;;;13.50;99.90;;;;;;5067986;28;20483;-73
2021/05/13 07:39:25;;;;;;;0.40;0.20;;;13.30;99.90;;;;;;5067781;28;20475;-73
2021/05/13 07:41:52;;;;;;;0.40;0.20;;;13.20;99.90;;;;;;5068641;28;20402;-73
2021/05/13 07:44:17;;;;;;;0.40;0.20;;;13.10;99.90;;;;;;5065472;28;20392;-74
2021/05/13 07:46:44;;;;;;;0.40;0.20;;;13.30;99.90;;;;;;5070469;28;20892;-73
2021/05/13 07:49:09;;;;;;;0.40;0.20;;;13.40;99.90;;;;;;5066548;28;20397;-75
2021/05/13 07:51:35;;;;;;;0.40;0.20;;;13.40;99.90;;;;;;5058721;28;20391;-74
2021/05/13 07:54:02;;;;;;;0.40;0.30;;;13.50;99.90;;;;;;5071261;28;20375;-74
2021/05/13 07:56:27;;;;;;;0.40;0.20;;;13.60;99.90;;;;;;5069118;28;20391;-74
2021/05/13 07:58:53;;;;;;;0.40;0.30;;;13.70;99.90;;;;;;5067495;28;20489;-73
2021/05/13 08:01:19;;;;;;;0.40;0.20;;;13.80;99.90;;;;;;5069846;28;20433;-72
2021/05/13 08:03:44;;;;;;;0.40;0.20;;;13.60;99.90;;;;;;5070102;28;20880;-73
2021/05/13 08:06:11;;;;;;;0.40;0.20;;;13.50;99.90;;;;;;5070034;28;20775;-74
2021/05/13 08:08:37;;;;;;;0.40;0.20;;;13.60;99.90;;;;;;5069333;28;20442;-72
2021/05/13 08:11:03;;;;;;;0.40;0.20;;;13.60;99.90;;;;;;5065156;28;20729;-73
2021/05/13 08:13:30;;;;;;;0.40;0.20;;;13.70;99.90;;;;;;5058966;28;20383;-73
2021/05/13 08:15:56;;;;;;;0.40;0.30;;;13.80;99.90;;;;;;5070241;28;20400;-73
2021/05/13 08:18:22;;;;;;;0.40;0.20;;;14.00;99.90;;;;;;5069147;28;20442;-72
2021/05/13 08:20:47;;;;;;;0.40;0.30;;;13.90;99.90;;;;;;5069958;28;20380;-75
2021/05/13 08:23:13;;;;;;;0.40;0.20;;;13.60;99.90;;;;;;5069794;28;20383;-75
2021/05/13 08:25:39;;;;;;;0.40;0.30;;;13.70;99.90;;;;;;5069234;28;20391;-73
2021/05/13 08:28:05;;;;;;;0.40;0.20;;;13.70;99.90;;;;;;5069603;28;20934;-73
2021/05/13 08:30:31;;;;;;;0.40;0.20;;;13.60;99.90;;;;;;5061609;28;21132;-74
2021/05/13 08:32:56;;;;;;;0.40;0.20;;;13.60;99.90;;;;;;5070104;28;20486;-73
2021/05/13 08:35:22;;;;;;;0.40;0.20;;;13.80;99.90;;;;;;5069397;28;20903;-74
2021/05/13 08:37:47;;;;;;;0.40;0.40;;;13.80;99.90;;;;;;5065950;28;20403;-75
2021/05/13 08:40:14;;;;;;;0.40;0.20;;;13.40;99.90;;;;;;5069420;28;20399;-76
2021/05/13 08:42:40;;;;;;;0.40;0.20;;;13.50;99.90;;;;;;5069897;28;20465;-76
2021/05/13 08:45:07;;;;;;;0.40;0.20;;;13.20;99.90;;;;;;5064788;28;20447;-72
2021/05/13 08:47:33;;;;;;;0.40;0.20;;;13.30;99.90;;;;;;5066635;28;20715;-73
2021/05/13 08:50:02;;;;;;;0.40;0.20;;;13.40;99.90;;;;;;5059196;28;20433;-74
2021/05/13 08:52:29;;;;;;;0.40;0.20;;;13.20;99.90;;;;;;5050486;28;20385;-73
2021/05/13 08:54:58;;;;;;;0.40;0.20;;;13.00;99.90;;;;;;5050614;28;20855;-73
2021/05/13 08:57:24;;;;;;;0.40;0.20;;;13.00;99.90;;;;;;5049376;28;20461;-73
2021/05/13 08:59:50;;;;;;;0.40;0.20;;;13.00;99.90;;;;;;5050361;28;20385;-73
2021/05/13 09:02:17;;;;;;;0.40;0.20;;;13.10;99.90;;;;;;5067703;28;20391;-76
2021/05/13 09:04:46;;;;;;;0.40;0.20;;;13.00;99.90;;;;;;5069206;28;20386;-74
2021/05/13 09:07:15;;;;;;;0.40;0.20;;;12.90;99.90;;;;;;5069305;28;20415;-73
2021/05/13 09:09:57;;;;;;;0.40;0.20;;;13.00;99.90;;;;;;5070005;28;20408;-73
2021/05/13 09:12:25;;;;;;;0.40;0.20;;;13.00;99.90;;;;;;5069439;28;20451;-74
2021/05/13 09:15:12;;;;;;;0.40;0.20;;;13.00;99.90;;;;;;5069354;28;20454;-73
2021/05/13 09:17:39;;;;;;;0.40;0.20;;;13.00;99.90;;;;;;5069677;28;20540;-73
2021/05/13 09:20:06;;;;;;;0.40;0.20;;;12.80;99.90;;;;;;5070190;28;20797;-74
2021/05/13 09:22:32;;;;;;;0.40;0.20;;;13.00;99.90;;;;;;5069464;28;20455;-73
2021/05/13 09:25:00;;;;;;;0.40;0.20;;;12.80;99.90;;;;;;5069998;28;20732;-72
2021/05/13 09:27:28;;;;;;;0.40;0.20;;;12.90;99.90;;;;;;5069401;28;20400;-73
2021/05/13 09:30:01;;;;;;;0.40;0.20;;;12.80;99.90;;;;;;5069185;28;20946;-72
2021/05/13 09:32:27;;;;;;;0.40;0.20;;;12.80;99.90;;;;;;5069268;28;20388;-73
2021/05/13 09:34:53;;;;;;;0.40;0.20;;;12.70;99.90;;;;;;5068977;28;20729;-72
2021/05/13 09:37:18;;;;;;;0.40;0.20;;;12.80;99.90;;;;;;5071733;28;20442;-73
2021/05/13 09:39:49;;;;;;;0.40;0.20;;;12.80;99.90;;;;;;5071904;28;20881;-74
2021/05/13 09:42:19;;;;;;;0.40;0.20;;;13.00;99.90;;;;;;5073457;28;20368;-72
2021/05/13 09:44:48;;;;;;;0.40;0.20;;;12.90;99.90;;;;;;5073818;28;20478;-74
2021/05/13 09:47:28;;;;;;;0.40;0.20;;;13.00;99.90;;;;;;5073510;28;20388;-72
2021/05/13 09:50:05;;;;;;;0.40;0.30;;;12.80;99.90;;;;;;5074044;28;20449;-74
2021/05/13 09:52:43;;;;;;;0.40;0.20;;;12.80;99.90;;;;;;5072757;28;20375;-74
2021/05/13 09:55:22;;;;;;;0.40;0.20;;;12.90;99.90;;;;;;5073787;28;20426;-73
2021/05/13 09:57:52;;;;;;;0.40;0.20;;;12.90;99.90;;;;;;5073715;28;20444;-74
2021/05/13 10:00:38;;;;;;;0.40;0.20;;;13.00;99.90;;;;;;5072995;28;20449;-77
2021/05/13 10:03:09;;;;;;;0.40;0.20;;;13.00;99.50;;;;;;5073179;28;20395;-73
2021/05/13 10:05:36;;;;;;;0.40;0.20;;;13.10;99.80;;;;;;5072530;28;20383;-74
2021/05/13 10:08:02;;;;;;;0.40;0.20;;;13.30;99.40;;;;;;5072165;28;20392;-72
2021/05/13 10:10:29;;;;;;;0.40;0.20;;;13.30;97.90;;;;;;5072231;28;20380;-75
2021/05/13 10:12:57;;;;;;;0.40;0.20;;;13.30;98.60;;;;;;5073298;28;20404;-74
2021/05/13 10:15:25;;;;;;;0.40;0.20;;;13.20;97.70;;;;;;5072511;28;20379;-74
2021/05/13 10:17:55;;;;;;;0.40;0.20;;;13.00;98.00;;;;;;5073370;28;20414;-74
2021/05/13 10:20:22;;;;;;;0.40;0.20;;;13.00;98.40;;;;;;5072545;28;20376;-75
2021/05/13 10:22:48;;;;;;;0.40;0.20;;;13.00;98.60;;;;;;5072540;28;20463;-75
2021/05/13 10:25:31;;;;;;;0.40;0.22;;;13.00;99.50;;;;;;5072815;28;20915;-75
2021/05/13 10:28:04;;;;;;;0.40;0.20;;;12.90;99.20;;;;;;5072982;28;20470;-73
2021/05/13 10:30:32;;;;;;;0.40;0.20;;;12.70;99.40;;;;;;5068619;28;20429;-74
2021/05/13 10:33:08;;;;;;;0.40;0.20;;;12.70;99.80;;;;;;5069977;28;20380;-73
2021/05/13 10:35:34;;;;;;;0.40;0.20;;;12.80;98.90;;;;;;5055382;28;20410;-72
2021/05/13 10:38:04;;;;;;;0.40;0.20;;;12.80;99.30;;;;;;5072567;28;20461;-72
2021/05/13 10:43:34;;;;;;;0.40;0.20;;;13.00;98.60;;;;;;5053852;28;20427;-75
2021/05/13 10:46:01;;;;;;;0.40;0.20;;;13.00;98.20;;;;;;5071156;28;20438;-74
2021/05/13 10:48:39;;;;;;;0.40;0.20;;;12.80;98.00;;;;;;5068681;28;20396;-73
2021/05/13 10:51:07;;;;;;;0.40;0.20;;;12.80;97.90;;;;;;5068878;28;20459;-76
2021/05/13 10:53:36;;;;;;;0.40;0.20;;;12.80;98.70;;;;;;5071127;28;20384;-74
2021/05/13 10:56:29;;;;;;;0.40;0.20;;;12.50;97.30;;;;;;5072051;28;20933;-75
2021/05/13 10:59:13;;;;;;;0.40;0.25;;;12.90;97.20;;;;;;5071908;28;20419;-77
2021/05/13 11:01:59;;;;;;;0.40;0.20;;;12.90;97.50;;;;;;5066597;28;20380;-76
2021/05/13 11:04:29;;;;;;;0.40;0.20;;;13.00;97.50;;;;;;5061827;28;20383;-76
2021/05/13 11:06:56;;;;;;;0.40;0.20;;;13.10;97.60;;;;;;5071719;28;20383;-74
2021/05/13 11:09:40;;;;;;;0.40;0.20;;;13.20;96.80;;;;;;5071344;28;20384;-77
2021/05/13 11:12:11;;;;;;;0.40;0.20;;;13.10;96.10;;;;;;5069038;28;20402;-76
2021/05/13 11:17:40;;;;;;;0.40;0.20;;;13.60;95.70;;;;;;5070964;28;20410;-76
2021/05/13 11:20:31;;;;;;;0.40;0.20;;;14.00;95.50;;;;;;5071752;28;20384;-78
2021/05/13 11:23:06;;;;;;;0.40;0.20;;;14.00;94.40;;;;;;5066379;28;20517;-73
2021/05/13 11:25:45;;;;;;;0.40;0.20;;;14.00;94.60;;;;;;5070484;28;20384;-75
2021/05/13 11:28:46;;;;;;;1.40;0.70;;;14.10;93.30;;;;;;5071338;28;20400;-76
2021/05/13 11:31:21;;;;;;;0.40;0.20;;;13.90;93.70;;;;;;5069004;28;20441;-75
2021/05/13 11:33:58;;;;;;;0.40;0.20;;;14.20;93.40;;;;;;5069992;28;20415;-75
2021/05/13 11:36:30;;;;;;;0.40;0.20;;;14.70;92.50;;;;;;5069934;28;20429;-75
2021/05/13 11:39:01;;;;;;;0.40;0.20;;;14.80;90.70;;;;;;5071124;28;20450;-73
2021/05/13 11:41:27;;;;;;;0.40;0.20;;;14.90;90.60;;;;;;5069847;28;20412;-75
2021/05/13 11:43:53;;;;;;;0.40;0.20;;;15.70;89.50;;;;;;5069387;28;20776;-75
2021/05/13 11:46:24;;;;;;;0.40;0.30;;;16.30;87.00;;;;;;5070571;28;20444;-76
2021/05/13 11:48:51;;;;;;;0.40;0.20;;;15.60;86.70;;;;;;5070886;28;20741;-73
2021/05/13 11:51:28;;;;;;;0.40;0.20;;;15.20;89.00;;;;;;5070819;28;20383;-73
2021/05/13 11:54:03;;;;;;;0.50;0.40;;;15.20;90.00;;;;;;5070704;28;20789;-74
2021/05/13 11:56:31;;;;;;;0.40;0.20;;;15.00;90.30;;;;;;5069729;28;20530;-75
2021/05/13 11:58:58;;;;;;;0.40;0.20;;;14.50;89.60;;;;;;5070623;28;20415;-74
2021/05/13 12:01:26;;;;;;;0.40;0.20;;;15.10;90.30;;;;;;5069487;28;20395;-75
2021/05/13 12:03:55;;;;;;;0.40;0.30;;;15.70;89.30;;;;;;5070393;28;20392;-75
2021/05/13 12:06:21;;;;;;;0.40;0.30;;;15.30;86.60;;;;;;5069976;28;20471;-75
2021/05/13 12:08:46;;;;;;;0.40;0.20;;;15.10;88.60;;;;;;5070077;28;20461;-74
2021/05/13 12:11:18;;;;;;;0.40;0.30;;;14.80;88.50;;;;;;5070593;28;20404;-73
2021/05/13 12:13:46;;;;;;;0.40;0.20;;;14.30;89.90;;;;;;5069695;28;20384;-75
2021/05/13 12:16:12;;;;;;;0.40;0.20;;;15.00;89.50;;;;;;5070474;28;20372;-74
2021/05/13 12:18:37;;;;;;;0.40;0.20;;;14.90;88.80;;;;;;5069464;28;20503;-75
2021/05/13 12:21:04;;;;;;;0.40;0.20;;;14.70;88.30;;;;;;5069984;28;20842;-74
2021/05/13 12:23:29;;;;;;;0.47;0.47;;;14.60;89.10;;;;;;5068491;28;20399;-73
2021/05/13 12:25:55;;;;;;;0.40;0.20;;;15.30;88.90;;;;;;5069830;28;20380;-74
2021/05/13 12:28:21;;;;;;;0.40;0.20;;;15.30;86.30;;;;;;5068949;28;20399;-75
2021/05/13 12:30:54;;;;;;;0.40;0.30;;;16.00;85.70;;;;;;5068798;28;20730;-72
2021/05/13 12:33:29;;;;;;;0.40;0.20;;;15.20;87.10;;;;;;5070132;28;20379;-76
2021/05/13 12:35:55;;;;;;;0.40;0.20;;;15.50;88.90;;;;;;5070383;28;20407;-71
2021/05/13 12:38:25;;;;;;;0.40;0.30;;;15.10;88.10;;;;;;5069959;28;20417;-76
2021/05/13 12:41:07;;;;;;;0.40;0.20;;;14.40;89.70;;;;;;5062329;28;20424;-72
2021/05/13 12:43:32;;;;;;;0.40;0.20;;;14.10;90.70;;;;;;5065593;28;20384;-73
2021/05/13 12:45:58;;;;;;;0.40;0.20;;;15.10;90.20;;;;;;5069235;28;20473;-72
2021/05/13 12:48:26;;;;;;;0.40;0.30;;;14.70;89.50;;;;;;5053018;28;20865;-72
2021/05/13 12:50:56;;;;;;;0.40;0.20;;;15.50;87.30;;;;;;5070056;28;20375;-72
2021/05/13 12:53:21;;;;;;;0.40;0.30;;;14.70;87.40;;;;;;5070099;28;20380;-75
2021/05/13 12:55:47;;;;;;;0.40;0.20;;;14.70;89.80;;;;;;5069737;28;20384;-71
2021/05/13 12:58:16;;;;;;;0.40;0.20;;;14.60;87.30;;;;;;5070388;28;20419;-72
2021/05/13 13:00:44;;;;;;;0.40;0.20;;;14.90;86.80;;;;;;5067792;28;20400;-73
2021/05/13 13:03:15;;;;;;;0.40;0.20;;;15.70;84.70;;;;;;5070315;28;20786;-71
2021/05/13 13:05:41;;;;;;;0.40;0.20;;;15.60;84.60;;;;;;5069455;28;20466;-72
2021/05/13 13:08:07;;;;;;;0.40;0.20;;;15.30;84.60;;;;;;5069942;28;20384;-72
2021/05/13 13:10:46;;;;;;;0.40;0.20;;;15.20;85.40;;;;;;5069764;28;20399;-72
2021/05/13 13:13:23;;;;;;;0.40;0.20;;;14.60;88.00;;;;;;5070632;28;20407;-72